Time;durP1;ratioP1;P1;durP2;ratioP2;P2;SDS_P1;SDS_P2;PMS_P1;PMS_P2;Temp;Humidity;BMP_temperature;BMP_pressure;BME280_temperature;BME280_humidity;BME280_pressure;Samples;Min_cycle;Max_cycle;Signal;HPM_P1;HPM_P2
2022/01/28 00:00:06;;;;;;;45.67;4.38;;;;;;;4.66;100.00;102627.91;5003074;28;20514;-80
2022/01/28 00:02:59;;;;;;;24.13;1.80;;;;;;;4.61;100.00;102632.56;4984188;28;20062;-81
2022/01/28 00:05:21;;;;;;;45.25;2.65;;;;;;;4.59;100.00;102635.31;5004034;28;20061;-80
2022/01/28 00:07:48;;;;;;;39.45;3.47;;;;;;;4.56;100.00;102650.78;5002029;28;20116;-81
2022/01/28 00:10:13;;;;;;;34.17;2.03;;;;;;;4.42;100.00;102648.38;4984819;28;20090;-80
2022/01/28 00:12:57;;;;;;;47.22;2.67;;;;;;;4.31;100.00;102642.31;4989685;28;20042;-80
2022/01/28 00:15:30;;;;;;;45.53;2.90;;;;;;;4.31;100.00;102656.81;4993966;28;20030;-80
2022/01/28 00:39:34;;;;;;;29.48;2.40;;;;;;;4.26;100.00;102677.69;4981148;28;20046;-80
2022/01/28 00:42:00;;;;;;;31.95;2.50;;;;;;;4.19;100.00;102681.47;4999873;28;20049;-80
2022/01/28 00:44:26;;;;;;;29.75;3.20;;;;;;;4.16;100.00;102685.13;4999981;28;20049;-79
2022/01/28 00:46:53;;;;;;;43.23;2.60;;;;;;;4.12;100.00;102686.16;4961574;28;1193209;-80
2022/01/28 00:49:18;;;;;;;56.33;2.42;;;;;;;4.18;100.00;102683.31;5002857;28;20307;-80
2022/01/28 00:51:45;;;;;;;36.20;2.22;;;;;;;4.13;100.00;102671.69;5003160;28;20064;-80
2022/01/28 00:54:10;;;;;;;40.45;2.50;;;;;;;4.16;100.00;102679.72;5007912;28;20121;-80
2022/01/28 00:56:37;;;;;;;37.47;2.38;;;;;;;4.07;100.00;102673.59;5002568;28;20030;-80
2022/01/28 00:59:02;;;;;;;25.23;2.35;;;;;;;4.01;100.00;102671.94;4988709;28;20445;-81
2022/01/28 01:01:29;;;;;;;30.63;2.00;;;;;;;4.02;100.00;102687.28;5010202;28;20034;-80
2022/01/28 01:03:59;;;;;;;50.50;3.72;;;;;;;3.97;100.00;102678.38;5016097;28;20349;-78
2022/01/28 01:06:25;;;;;;;31.30;2.95;;;;;;;3.94;100.00;102681.13;4999443;28;20034;-79
2022/01/28 01:08:51;;;;;;;46.53;2.75;;;;;;;3.96;100.00;102687.41;4995358;28;20109;-79
2022/01/28 01:11:20;;;;;;;30.55;1.75;;;;;;;3.95;100.00;102691.03;5006084;28;20054;-78
2022/01/28 01:13:46;;;;;;;38.15;2.50;;;;;;;4.01;100.00;102696.31;4993978;28;20065;-80
2022/01/28 01:16:15;;;;;;;34.70;2.65;;;;;;;3.85;100.00;102687.63;5001817;28;20034;-80
2022/01/28 01:18:53;;;;;;;32.97;1.95;;;;;;;3.88;100.00;102711.94;4985107;28;20064;-80
2022/01/28 01:21:29;;;;;;;25.52;1.98;;;;;;;3.84;100.00;102702.13;5002084;28;20038;-81
2022/01/28 01:23:57;;;;;;;41.38;2.13;;;;;;;3.88;100.00;102711.94;4999606;28;20034;-78
2022/01/28 01:26:35;;;;;;;35.63;1.65;;;;;;;3.96;100.00;102715.38;5001300;28;20038;-79
2022/01/28 01:29:05;;;;;;;42.97;3.30;;;;;;;4.03;100.00;102713.44;5003009;28;20019;-79
2022/01/28 01:31:31;;;;;;;28.02;2.20;;;;;;;4.02;100.00;102700.84;4983593;28;20022;-79
2022/01/28 01:34:09;;;;;;;14.80;1.75;;;;;;;4.10;100.00;102715.13;5001999;28;20027;-78
2022/01/28 01:36:35;;;;;;;30.27;1.90;;;;;;;4.07;100.00;102719.69;4986041;28;20042;-78
2022/01/28 01:39:02;;;;;;;36.45;2.03;;;;;;;4.11;100.00;102729.53;5002957;28;20045;-79
2022/01/28 01:41:44;;;;;;;27.70;2.13;;;;;;;4.08;100.00;102726.91;5020541;28;20137;-79
2022/01/28 01:46:58;;;;;;;47.55;3.97;;;;;;;4.16;100.00;102742.06;5003833;28;20046;-79
2022/01/28 01:52:07;;;;;;;25.27;1.80;;;;;;;4.07;100.00;102746.78;5001856;28;20065;-79
2022/01/28 01:54:41;;;;;;;43.35;2.28;;;;;;;4.03;100.00;102751.38;5000922;28;20116;-79
2022/01/28 01:57:09;;;;;;;19.33;1.40;;;;;;;4.13;100.00;102760.22;5000081;28;20030;-78
2022/01/28 01:59:36;;;;;;;47.88;2.17;;;;;;;4.07;100.00;102766.69;5001843;28;20030;-79
2022/01/28 02:02:02;;;;;;;22.73;2.00;;;;;;;4.04;100.00;102764.03;4995819;28;20160;-79
2022/01/28 02:04:27;;;;;;;33.92;2.40;;;;;;;3.95;100.00;102777.75;5011873;28;20041;-80
2022/01/28 02:06:53;;;;;;;24.55;2.03;;;;;;;3.91;100.00;102771.50;5016716;28;20398;-79
2022/01/28 02:09:19;;;;;;;38.78;3.25;;;;;;;3.83;100.00;102768.06;4996102;28;20477;-79
2022/01/28 02:11:45;;;;;;;34.83;1.98;;;;;;;3.81;100.00;102784.34;4984444;28;20110;-79
2022/01/28 02:14:10;;;;;;;30.67;1.65;;;;;;;3.78;100.00;102778.09;5017258;28;20030;-79
2022/01/28 02:16:36;;;;;;;56.03;2.58;;;;;;;3.75;100.00;102791.69;4986518;28;20379;-79
2022/01/28 02:19:02;;;;;;;32.10;2.55;;;;;;;3.72;100.00;102791.75;5002426;28;20080;-79
2022/01/28 02:21:32;;;;;;;24.15;1.60;;;;;;;3.52;100.00;102782.19;4987163;28;20042;-79
2022/01/28 02:24:02;;;;;;;70.68;3.45;;;;;;;3.61;100.00;102794.69;4991647;28;20057;-78
2022/01/28 02:26:29;;;;;;;33.90;3.55;;;;;;;3.61;100.00;102797.41;5004140;28;20035;-79
2022/01/28 02:28:57;;;;;;;30.23;2.60;;;;;;;3.69;100.00;102800.84;4998355;28;20034;-79
2022/01/28 02:31:26;;;;;;;27.55;2.33;;;;;;;3.72;100.00;102791.75;4986152;28;20050;-79
2022/01/28 02:33:54;;;;;;;45.22;1.92;;;;;;;3.65;100.00;102790.97;5004337;28;20046;-79
2022/01/28 02:36:20;;;;;;;35.97;2.95;;;;;;;3.64;100.00;102789.19;5004577;28;20406;-79
2022/01/28 02:38:46;;;;;;;36.83;2.15;;;;;;;3.62;100.00;102785.63;5002725;28;20060;-80
2022/01/28 02:41:11;;;;;;;25.30;1.58;;;;;;;3.60;100.00;102785.66;5002219;28;20038;-79
2022/01/28 02:46:15;;;;;;;32.33;2.13;;;;;;;3.42;100.00;102781.47;5005059;28;20096;-80
2022/01/28 02:48:52;;;;;;;31.63;3.63;;;;;;;3.47;100.00;102786.78;5001831;28;20120;-79
2022/01/28 02:51:20;;;;;;;49.78;3.17;;;;;;;3.46;100.00;102791.31;5022372;28;20037;-79
2022/01/28 02:53:54;;;;;;;40.92;2.53;;;;;;;3.40;100.00;102793.25;5043131;28;20030;-80
2022/01/28 02:56:23;;;;;;;48.53;2.60;;;;;;;3.44;100.00;102803.09;5002144;28;20041;-80
2022/01/28 02:58:50;;;;;;;43.28;3.15;;;;;;;3.46;100.00;102801.25;5001952;28;20117;-80
2022/01/28 03:01:17;;;;;;;45.28;2.72;;;;;;;3.40;100.00;102802.25;5002661;28;20057;-80
2022/01/28 03:03:45;;;;;;;27.95;3.45;;;;;;;3.44;100.00;102808.50;5001933;28;20035;-79
2022/01/28 03:06:13;;;;;;;28.58;2.35;;;;;;;3.39;100.00;102815.81;5003443;28;20046;-80
2022/01/28 03:08:43;;;;;;;45.92;2.70;;;;;;;3.31;100.00;102814.16;4986772;28;20053;-79
2022/01/28 03:14:15;;;;;;;30.10;2.42;;;;;;;3.28;100.00;102816.00;5003247;28;20049;-80
2022/01/28 03:19:40;;;;;;;40.65;2.67;;;;;;;3.27;100.00;102819.63;5012170;28;20473;-80
2022/01/28 03:22:05;;;;;;;44.45;2.95;;;;;;;3.26;100.00;102825.97;4987827;28;20038;-80
2022/01/28 03:24:32;;;;;;;40.40;3.42;;;;;;;3.23;100.00;102821.50;4989292;28;20076;-80
2022/01/28 03:27:03;;;;;;;30.10;2.45;;;;;;;3.19;100.00;102817.06;4988725;28;20040;-79
2022/01/28 03:29:29;;;;;;;43.85;3.35;;;;;;;3.26;100.00;102817.84;4997185;28;20678;-80
2022/01/28 03:31:54;;;;;;;42.20;2.67;;;;;;;3.22;100.00;102817.00;5010669;28;20042;-80
2022/01/28 03:34:20;;;;;;;39.80;3.83;;;;;;;3.27;100.00;102827.75;5007043;28;20031;-80
2022/01/28 03:36:45;;;;;;;59.75;3.70;;;;;;;3.28;100.00;102824.13;5008099;28;20057;-79
2022/01/28 03:39:11;;;;;;;36.35;2.67;;;;;;;3.26;100.00;102823.25;5014682;28;20713;-79
2022/01/28 03:41:37;;;;;;;56.15;2.97;;;;;;;3.28;100.00;102816.91;5013141;28;20065;-78
2022/01/28 03:44:03;;;;;;;30.45;2.50;;;;;;;3.38;100.00;102805.91;5032933;28;20041;-78
2022/01/28 03:46:30;;;;;;;24.15;1.50;;;;;;;3.37;100.00;102802.31;5015576;28;20042;-79
2022/01/28 03:48:56;;;;;;;38.15;2.50;;;;;;;3.40;100.00;102804.97;4998718;28;20050;-79
2022/01/28 03:51:22;;;;;;;41.90;3.22;;;;;;;3.33;100.00;102807.81;5012619;28;20021;-80
2022/01/28 03:53:49;;;;;;;35.60;2.78;;;;;;;3.22;100.00;102811.59;4993233;28;20117;-79
2022/01/28 03:56:15;;;;;;;33.47;2.60;;;;;;;3.16;100.00;102818.91;5004793;28;20421;-79
2022/01/28 03:58:41;;;;;;;38.78;3.60;;;;;;;3.17;100.00;102820.72;5006808;28;20034;-79
2022/01/28 04:01:18;;;;;;;28.58;2.72;;;;;;;3.13;100.00;102820.75;4988967;28;20098;-79
2022/01/28 04:11:49;;;;;;;34.38;2.78;;;;;;;3.22;100.00;102835.94;5001433;28;20034;-79
2022/01/28 04:14:25;;;;;;;57.78;3.55;;;;;;;3.13;100.00;102842.41;5021303;28;20073;-79
2022/01/28 04:19:36;;;;;;;43.22;3.05;;;;;;;3.11;100.00;102846.94;4995583;28;20030;-78
2022/01/28 04:22:02;;;;;;;54.17;5.05;;;;;;;3.08;100.00;102849.72;5019603;28;20042;-79
2022/01/28 04:24:28;;;;;;;30.35;4.07;;;;;;;3.00;100.00;102853.44;5006926;28;20034;-78
2022/01/28 04:26:53;;;;;;;43.15;3.15;;;;;;;3.06;100.00;102861.47;5004133;28;20038;-78
2022/01/28 04:29:19;;;;;;;39.88;2.97;;;;;;;3.02;100.00;102860.63;5003650;28;20026;-79
2022/01/28 04:31:48;;;;;;;40.63;2.15;;;;;;;2.97;100.00;102862.50;5003276;28;20437;-79
2022/01/28 04:34:15;;;;;;;51.33;3.83;;;;;;;2.90;100.00;102866.22;4985877;28;20423;-79
2022/01/28 04:37:11;;;;;;;42.70;3.85;;;;;;;2.80;100.00;102851.03;4988853;28;20084;-79
2022/01/28 04:39:45;;;;;;;42.20;4.40;;;;;;;2.87;100.00;102868.94;5034105;28;20053;-79
2022/01/28 05:00:39;;;;;;;30.42;3.05;;;;;;;2.90;100.00;102890.56;5002411;28;20049;-79
2022/01/28 05:06:23;;;;;;;33.30;2.85;;;;;;;2.85;100.00;102887.91;4992881;28;20042;-79
2022/01/28 05:25:14;;;;;;;42.25;2.88;;;;;;;2.87;100.00;102913.16;5017138;28;20042;-80
2022/01/28 05:27:12;;;;;;;36.08;3.78;;;;;;;2.80;100.00;102910.53;4987065;28;20042;-80
2022/01/28 05:29:39;;;;;;;46.50;4.85;;;;;;;2.80;100.00;102924.06;4983490;28;20077;-79
2022/01/28 05:32:09;;;;;;;27.85;3.25;;;;;;;2.74;100.00;102923.25;4997423;28;20041;-78
2022/01/28 05:34:36;;;;;;;55.50;4.28;;;;;;;2.78;100.00;102951.13;5000224;28;20392;-80
2022/01/28 05:37:02;;;;;;;32.30;3.25;;;;;;;2.78;100.00;102947.53;4998764;28;20121;-79
2022/01/28 05:39:27;;;;;;;37.90;4.32;;;;;;;2.59;100.00;102950.44;4985803;28;20030;-79
2022/01/28 05:41:53;;;;;;;50.08;5.50;;;;;;;2.62;100.00;102947.72;4999145;28;20034;-78
2022/01/28 05:44:20;;;;;;;29.95;3.35;;;;;;;2.60;100.00;102957.66;4994613;28;20022;-80
2022/01/28 05:46:46;;;;;;;50.53;4.05;;;;;;;2.61;100.00;102962.16;4997681;28;20057;-80
2022/01/28 05:49:13;;;;;;;39.70;3.95;;;;;;;2.55;100.00;102959.53;4994745;28;20038;-79
2022/01/28 05:51:48;;;;;;;31.10;3.20;;;;;;;2.47;100.00;102958.72;5034149;28;20040;-79
2022/01/28 05:54:13;;;;;;;31.67;3.38;;;;;;;2.32;100.00;102965.19;5001166;28;20545;-78
2022/01/28 05:56:39;;;;;;;25.33;3.47;;;;;;;2.36;100.00;102969.63;5002652;28;20034;-78
2022/01/28 05:59:05;;;;;;;26.80;3.58;;;;;;;2.38;100.00;102982.25;5008136;28;20027;-77
2022/01/28 06:01:30;;;;;;;36.03;3.22;;;;;;;2.39;100.00;102977.72;5003163;28;20077;-78
2022/01/28 06:03:56;;;;;;;46.90;4.07;;;;;;;2.30;100.00;102986.81;5022556;28;20486;-79
2022/01/28 06:06:22;;;;;;;45.60;3.78;;;;;;;2.15;100.00;102993.28;5001884;28;20031;-79
2022/01/28 06:08:53;;;;;;;27.75;5.10;;;;;;;2.14;100.00;102999.59;5023093;28;20026;-79
2022/01/28 06:11:19;;;;;;;46.78;4.90;;;;;;;2.16;100.00;103000.47;5004688;28;20042;-80
2022/01/28 06:13:45;;;;;;;41.17;4.15;;;;;;;2.13;100.00;103005.91;5015916;28;20026;-80
2022/01/28 06:16:15;;;;;;;41.22;4.43;;;;;;;2.14;100.00;103009.50;5001507;28;20105;-79
2022/01/28 06:18:42;;;;;;;47.38;4.97;;;;;;;2.24;100.00;103004.91;5000998;28;20021;-80
2022/01/28 06:21:08;;;;;;;42.45;4.53;;;;;;;2.16;100.00;103010.38;4982971;28;20034;-80
2022/01/28 06:23:34;;;;;;;29.33;4.45;;;;;;;2.12;100.00;103006.81;4986977;28;20117;-80
2022/01/28 06:26:00;;;;;;;27.60;4.63;;;;;;;2.00;100.00;103021.34;5002683;28;20065;-78
2022/01/28 06:28:26;;;;;;;35.47;4.38;;;;;;;1.91;100.00;103020.50;5004141;28;20073;-79
2022/01/28 06:30:52;;;;;;;23.48;6.10;;;;;;;1.89;100.00;103025.91;5002112;28;20030;-79
2022/01/28 06:33:18;;;;;;;46.75;4.95;;;;;;;1.83;100.00;103024.16;4986646;28;20042;-78
2022/01/28 06:35:45;;;;;;;40.25;5.68;;;;;;;1.87;100.00;103034.94;4986842;28;20030;-79
2022/01/28 06:38:11;;;;;;;32.15;4.93;;;;;;;1.99;100.00;103026.75;4987703;28;20033;-79
2022/01/28 06:40:37;;;;;;;42.15;6.28;;;;;;;2.10;100.00;103035.66;5002463;28;20031;-80
2022/01/28 06:43:03;;;;;;;43.10;6.30;;;;;;;2.04;100.00;103024.00;4988056;28;20441;-79
2022/01/28 06:45:29;;;;;;;36.15;5.68;;;;;;;2.04;100.00;103037.53;5002399;28;20069;-79
2022/01/28 06:47:54;;;;;;;44.53;6.28;;;;;;;1.98;100.00;103044.78;5002019;28;20030;-78
2022/01/28 06:50:20;;;;;;;35.80;5.15;;;;;;;2.00;100.00;103047.44;5003080;28;20044;-79
2022/01/28 06:52:45;;;;;;;37.75;6.25;;;;;;;2.01;100.00;103047.41;4998607;28;20042;-79
2022/01/28 06:55:12;;;;;;;45.67;6.85;;;;;;;1.90;100.00;103052.00;5008002;28;20038;-79
2022/01/28 06:57:38;;;;;;;43.67;5.72;;;;;;;1.82;100.00;103056.56;5015380;28;20053;-79
2022/01/28 07:00:05;;;;;;;40.45;6.82;;;;;;;1.79;100.00;103071.00;5008209;28;20085;-79
2022/01/28 07:02:30;;;;;;;39.65;7.85;;;;;;;1.92;100.00;103074.53;5005937;28;20038;-79
2022/01/28 07:04:56;;;;;;;28.98;7.82;;;;;;;1.89;100.00;103065.56;5013644;28;20058;-79
2022/01/28 07:07:24;;;;;;;59.95;9.55;;;;;;;1.89;100.00;103070.94;5034072;28;20061;-80
2022/01/28 07:09:50;;;;;;;39.88;8.38;;;;;;;1.65;100.00;103070.19;4995611;28;20026;-80
2022/01/28 07:12:16;;;;;;;40.13;8.27;;;;;;;1.76;100.00;103100.72;5007263;28;20088;-79
2022/01/28 07:14:43;;;;;;;45.30;9.43;;;;;;;1.78;100.00;103098.00;4988615;28;20030;-80
2022/01/28 07:17:08;;;;;;;38.05;8.68;;;;;;;1.65;100.00;103079.16;4993247;28;20081;-80
2022/01/28 07:19:34;;;;;;;60.58;10.63;;;;;;;1.85;100.00;103097.06;4995975;28;20037;-79
2022/01/28 07:22:01;;;;;;;51.65;11.00;;;;;;;1.78;100.00;103111.53;5008847;28;20031;-79
2022/01/28 07:24:26;;;;;;;42.33;9.65;;;;;;;1.70;100.00;103099.88;5010148;28;20110;-78
2022/01/28 07:26:52;;;;;;;46.58;10.10;;;;;;;1.68;100.00;103115.19;5014114;28;20085;-79
2022/01/28 07:29:18;;;;;;;51.03;9.57;;;;;;;1.70;100.00;103118.78;5013053;28;20030;-80
2022/01/28 07:31:44;;;;;;;58.22;10.70;;;;;;;1.71;100.00;103115.19;4988725;28;20129;-79
2022/01/28 07:34:10;;;;;;;43.75;10.70;;;;;;;1.75;100.00;103120.53;5016588;28;20501;-80
2022/01/28 07:36:36;;;;;;;60.70;13.32;;;;;;;1.78;100.00;103116.94;5009032;28;20034;-80
2022/01/28 07:39:05;;;;;;;47.67;11.63;;;;;;;1.77;100.00;103115.13;5007227;28;20066;-78
2022/01/28 07:41:31;;;;;;;50.47;12.43;;;;;;;1.79;100.00;103118.72;5002566;28;20129;-78
2022/01/28 07:43:57;;;;;;;74.78;13.55;;;;;;;1.86;100.00;103108.78;5002302;28;20391;-78
2022/01/28 07:46:22;;;;;;;57.00;13.50;;;;;;;1.92;100.00;103125.84;5005472;28;20045;-79
2022/01/28 07:48:48;;;;;;;61.78;14.25;;;;;;;1.91;100.00;103120.44;4993906;28;20105;-78
2022/01/28 07:51:14;;;;;;;51.42;13.43;;;;;;;1.94;100.00;103123.13;5015660;28;20080;-78
2022/01/28 07:53:39;;;;;;;60.13;13.68;;;;;;;1.92;100.00;103133.03;5003603;28;20038;-78
2022/01/28 07:56:05;;;;;;;71.93;13.63;;;;;;;1.84;100.00;103135.81;4998870;28;20101;-79
2022/01/28 07:58:30;;;;;;;59.30;14.23;;;;;;;1.89;100.00;103146.59;5002154;28;20124;-78
2022/01/28 08:00:56;;;;;;;61.58;14.55;;;;;;;1.94;100.00;103147.44;5010288;28;20111;-79
2022/01/28 08:03:23;;;;;;;57.50;13.80;;;;;;;1.95;100.00;103144.75;5021496;28;20051;-80
2022/01/28 08:05:49;;;;;;;63.58;15.35;;;;;;;2.02;100.00;103143.78;5004758;28;20054;-79
2022/01/28 08:08:18;;;;;;;60.10;14.93;;;;;;;2.08;100.00;103144.66;5003491;28;20030;-79
2022/01/28 08:10:44;;;;;;;62.53;14.65;;;;;;;2.09;100.00;103141.94;4983657;28;20109;-79
2022/01/28 08:13:09;;;;;;;62.58;15.48;;;;;;;2.08;100.00;103144.66;5009462;28;20070;-79
2022/01/28 08:15:35;;;;;;;70.07;16.08;;;;;;;2.17;100.00;103158.09;5000854;28;20037;-79
2022/01/28 08:18:01;;;;;;;68.82;15.23;;;;;;;2.17;100.00;103152.72;4985940;28;20034;-79
2022/01/28 08:20:27;;;;;;;56.50;15.77;;;;;;;2.26;100.00;103158.03;5009314;28;20038;-80
2022/01/28 08:22:57;;;;;;;70.93;15.02;;;;;;;2.24;100.00;103157.16;5002846;28;20422;-79
2022/01/28 08:25:24;;;;;;;61.75;16.50;;;;;;;2.30;100.00;103167.94;5002643;28;20034;-81
2022/01/28 08:27:51;;;;;;;48.72;15.32;;;;;;;2.45;100.00;103168.72;5004748;28;20050;-79
2022/01/28 08:30:20;;;;;;;61.33;15.95;;;;;;;2.51;100.00;103164.16;5002644;28;20034;-80
2022/01/28 08:32:47;;;;;;;73.72;16.15;;;;;;;2.47;100.00;103158.78;5020284;28;20047;-80
2022/01/28 08:35:13;;;;;;;68.78;15.38;;;;;;;2.55;100.00;103167.75;5004259;28;20042;-80
2022/01/28 08:37:39;;;;;;;76.28;16.20;;;;;;;2.58;100.00;103165.00;5001392;28;20498;-80
2022/01/28 08:40:06;;;;;;;71.00;14.98;;;;;;;2.70;100.00;103170.31;5005305;28;20036;-80
2022/01/28 08:42:32;;;;;;;60.33;13.45;;;;;;;2.80;100.00;103173.81;5007039;28;20089;-80
2022/01/28 08:44:58;;;;;;;59.58;13.85;;;;;;;2.89;100.00;103165.63;5006431;28;20046;-80
2022/01/28 08:47:23;;;;;;;43.10;12.70;;;;;;;2.93;100.00;103167.38;5005210;28;20029;-80
2022/01/28 08:49:49;;;;;;;56.63;13.23;;;;;;;2.98;100.00;103178.16;5009996;28;20034;-80
2022/01/28 08:52:15;;;;;;;59.83;13.98;;;;;;;3.08;100.00;103184.38;5006953;28;20037;-80
2022/01/28 08:54:41;;;;;;;58.90;12.73;;;;;;;3.15;100.00;103182.50;4998090;28;20030;-80
2022/01/28 08:57:08;;;;;;;59.30;12.02;;;;;;;3.16;100.00;103176.19;5006982;28;20026;-80
2022/01/28 08:59:34;;;;;;;51.97;13.18;;;;;;;3.19;100.00;103165.34;5007371;28;20068;-80
2022/01/28 09:02:00;;;;;;;39.40;11.65;;;;;;;3.19;100.00;103168.03;4990654;28;20434;-80
2022/01/28 09:04:25;;;;;;;45.00;12.38;;;;;;;3.35;100.00;103183.22;5002538;28;20041;-80
2022/01/28 09:06:51;;;;;;;53.60;12.65;;;;;;;3.32;100.00;103172.41;4998638;28;20164;-80
2022/01/28 09:09:19;;;;;;;57.80;13.05;;;;;;;3.47;100.00;103184.88;5003100;28;20041;-80
2022/01/28 09:12:48;;;;;;;48.28;12.50;;;;;;;3.56;100.00;103178.44;5033092;28;20031;-80
2022/01/28 09:14:39;;;;;;;41.40;11.80;;;;;;;3.56;100.00;103186.56;4999127;28;20532;-80
2022/01/28 09:17:05;;;;;;;49.90;12.65;;;;;;;3.63;100.00;103178.34;4999488;28;20034;-80
2022/01/28 09:19:31;;;;;;;49.55;13.45;;;;;;;3.77;100.00;103178.19;4982593;28;20034;-80
2022/01/28 09:21:56;;;;;;;62.92;13.27;;;;;;;3.97;100.00;103185.16;4999852;28;20041;-81
2022/01/28 09:24:22;;;;;;;47.85;12.43;;;;;;;4.09;100.00;103181.38;4980591;28;20113;-80
2022/01/28 09:26:47;;;;;;;53.58;12.25;;;;;;;4.25;100.00;103196.50;5001082;28;20090;-81
2022/01/28 09:29:13;;;;;;;50.90;12.57;;;;;;;4.15;100.00;103189.41;5001693;28;20386;-79
2022/01/28 09:31:38;;;;;;;50.85;11.30;;;;;;;4.23;100.00;103195.59;4983812;28;20504;-80
2022/01/28 09:34:03;;;;;;;67.80;11.52;;;;;;;4.35;100.00;103195.44;5000862;28;20026;-79
2022/01/28 09:36:29;;;;;;;61.90;12.65;;;;;;;4.45;100.00;103212.47;5007329;28;20077;-79
2022/01/28 09:38:54;;;;;;;49.38;12.45;;;;;;;4.65;100.00;103198.59;5000207;28;20031;-79
2022/01/28 09:41:20;;;;;;;38.88;9.68;;;;;;;4.83;100.00;103208.25;5000843;28;20045;-80
2022/01/28 09:43:46;;;;;;;42.65;8.18;;;;;;;5.08;100.00;103208.72;4999055;28;20044;-80
2022/01/28 09:46:12;;;;;;;49.55;8.73;;;;;;;5.17;100.00;103210.38;4990476;28;20054;-81
2022/01/28 09:48:38;;;;;;;45.05;8.85;;;;;;;5.46;100.00;103217.97;4992225;28;20034;-81
2022/01/28 09:51:05;;;;;;;49.70;8.05;;;;;;;5.45;100.00;103213.44;4998695;28;20037;-80
2022/01/28 09:53:31;;;;;;;39.63;7.32;;;;;;;5.64;100.00;103224.88;4999928;28;20828;-81
2022/01/28 09:55:57;;;;;;;38.25;7.60;;;;;;;5.70;100.00;103221.13;4984922;28;20026;-81
2022/01/28 09:58:24;;;;;;;40.85;7.75;;;;;;;5.86;100.00;103224.41;4984440;28;20041;-81
2022/01/28 10:00:49;;;;;;;34.35;6.95;;;;;;;5.93;100.00;103217.03;4999711;28;20030;-81
2022/01/28 10:03:16;;;;;;;36.13;7.53;;;;;;;5.99;100.00;103228.69;5000854;28;20125;-82
2022/01/28 10:05:50;;;;;;;40.00;7.45;;;;;;;5.99;100.00;103222.38;5000727;28;20045;-80
2022/01/28 10:08:16;;;;;;;52.90;8.10;;;;;;;6.23;100.00;103224.53;5001058;28;20041;-80
2022/01/28 10:10:51;;;;;;;46.10;7.95;;;;;;;6.29;100.00;103219.91;5000533;28;20049;-81
2022/01/28 10:13:39;;;;;;;36.10;6.80;;;;;;;6.43;100.00;103223.19;5032037;28;20502;-80
2022/01/28 10:16:16;;;;;;;38.72;6.68;;;;;;;6.40;100.00;103223.25;4991961;28;20490;-80
2022/01/28 10:18:49;;;;;;;59.35;10.20;;;;;;;6.52;100.00;103222.97;5010966;28;20058;-81
2022/01/28 10:21:21;;;;;;;43.22;7.78;;;;;;;6.49;100.00;103220.31;4999290;28;20094;-81
2022/01/28 10:23:59;;;;;;;53.28;9.07;;;;;;;6.53;100.00;103226.59;5015282;28;20388;-79
2022/01/28 10:26:39;;;;;;;42.90;8.68;;;;;;;6.61;100.00;103217.31;5000353;28;20045;-82
2022/01/28 10:29:08;;;;;;;53.17;9.80;;;;;;;6.57;100.00;103215.56;4985565;28;20035;-81
2022/01/28 10:31:39;;;;;;;45.30;8.07;;;;;;;6.73;100.00;103212.50;4999888;28;20714;-80
2022/01/28 10:34:13;;;;;;;48.28;8.65;;;;;;;6.80;100.00;103223.22;4982353;28;20050;-80
2022/01/28 10:36:39;;;;;;;46.80;10.18;;;;;;;6.78;100.00;103225.03;5000238;28;20027;-79
2022/01/28 10:39:04;;;;;;;49.15;8.82;;;;;;;6.84;100.00;103209.47;4985616;28;20088;-79
2022/01/28 10:41:30;;;;;;;51.83;10.15;;;;;;;6.94;100.00;103220.13;5032629;28;20050;-79
2022/01/28 10:43:58;;;;;;;58.55;11.20;;;;;;;7.01;100.00;103217.25;5002152;28;20090;-79
2022/01/28 10:46:30;;;;;;;39.88;9.73;;;;;;;6.96;100.00;103215.50;5017826;28;20506;-79
2022/01/28 10:49:03;;;;;;;46.42;8.52;;;;;;;7.05;100.00;103224.38;5035222;28;21088;-79
2022/01/28 10:51:48;;;;;;;49.72;9.05;;;;;;;7.10;100.00;103226.06;5006945;28;20060;-80
2022/01/28 10:54:15;;;;;;;42.20;9.80;;;;;;;7.34;100.00;103229.06;5003039;28;20026;-81
2022/01/28 10:56:58;;;;;;;54.83;9.45;;;;;;;7.46;100.00;103220.56;5001676;28;20040;-80
2022/01/28 10:59:32;;;;;;;67.05;10.35;;;;;;;7.55;100.00;103217.56;5018685;28;20033;-81
2022/01/28 11:01:58;;;;;;;43.30;7.72;;;;;;;7.77;100.00;103216.94;5015273;28;20412;-81
2022/01/28 11:04:25;;;;;;;43.95;7.18;;;;;;;7.76;100.00;103209.72;5005662;28;20034;-80
2022/01/28 11:06:54;;;;;;;51.88;7.93;;;;;;;7.94;100.00;103205.56;5002419;28;20030;-81
2022/01/28 11:09:22;;;;;;;63.90;8.80;;;;;;;7.93;100.00;103209.22;4997955;28;20049;-81
2022/01/28 11:11:49;;;;;;;50.33;7.57;;;;;;;7.78;100.00;103201.50;5006141;28;20050;-80
2022/01/28 11:14:15;;;;;;;48.15;7.93;;;;;;;7.79;100.00;103208.72;5004283;28;20041;-81
2022/01/28 11:16:40;;;;;;;53.47;7.47;;;;;;;7.76;100.00;103203.38;5005768;28;20044;-82
2022/01/28 11:19:10;;;;;;;41.45;6.18;;;;;;;7.84;100.00;103199.47;5009226;28;20033;-81
2022/01/28 11:21:53;;;;;;;40.75;5.97;;;;;;;7.73;100.00;103199.78;4992693;28;20030;-80
2022/01/28 11:24:34;;;;;;;34.45;3.47;;;;;;;7.43;100.00;103185.22;4985919;28;20041;-81
2022/01/28 11:27:23;;;;;;;26.65;2.42;;;;;;;7.72;100.00;103191.66;5002166;28;20522;-81
2022/01/28 11:29:49;;;;;;;24.80;2.35;;;;;;;7.12;100.00;103188.78;5031443;28;20054;-79
2022/01/28 11:32:17;;;;;;;32.80;2.78;;;;;;;7.18;100.00;103180.44;5003961;28;20026;-81
2022/01/28 11:35:02;;;;;;;24.17;2.85;;;;;;;7.09;100.00;103187.97;4988869;28;21841;-81
2022/01/28 11:37:33;;;;;;;28.75;2.75;;;;;;;6.75;100.00;103178.84;5015117;28;20026;-81
2022/01/28 11:40:15;;;;;;;18.88;3.67;;;;;;;7.10;100.00;103167.94;4985632;28;20042;-78
2022/01/28 11:42:42;;;;;;;32.65;3.47;;;;;;;7.28;100.00;103177.44;4981500;28;20066;-80
2022/01/28 11:45:09;;;;;;;29.88;3.35;;;;;;;7.28;100.00;103159.28;4990712;28;20045;-80
2022/01/28 11:47:37;;;;;;;36.45;3.25;;;;;;;7.56;100.00;103147.59;4981794;28;20038;-80
2022/01/28 11:50:09;;;;;;;47.92;3.63;;;;;;;7.52;100.00;103157.66;4997665;28;20026;-81
2022/01/28 11:52:42;;;;;;;31.90;3.25;;;;;;;7.52;100.00;103156.78;4989261;28;20490;-80
2022/01/28 11:55:13;;;;;;;30.80;3.85;;;;;;;7.64;100.00;103155.53;5013209;28;20035;-79
2022/01/28 11:57:49;;;;;;;38.13;4.03;;;;;;;7.44;100.00;103145.22;4980272;28;20069;-80
2022/01/28 12:00:28;;;;;;;41.17;3.72;;;;;;;7.36;100.00;103140.88;5024846;28;20061;-82
2022/01/28 12:02:54;;;;;;;26.38;3.08;;;;;;;7.13;100.00;103138.81;4998330;28;20038;-83
2022/01/28 12:05:29;;;;;;;35.72;3.55;;;;;;;7.05;100.00;103156.28;4993433;28;20045;-82
2022/01/28 12:07:56;;;;;;;35.75;3.75;;;;;;;6.97;100.00;103164.69;5021919;28;20030;-81
2022/01/28 12:10:23;;;;;;;45.72;3.72;;;;;;;7.17;100.00;103142.34;5004093;28;20033;-82
2022/01/28 12:13:01;;;;;;;27.42;3.25;;;;;;;7.32;100.00;103149.19;5032851;28;20041;-80
2022/01/28 12:15:29;;;;;;;45.70;4.35;;;;;;;7.41;100.00;103151.66;4986102;28;20038;-83
2022/01/28 12:18:10;;;;;;;29.08;3.67;;;;;;;7.47;100.00;103148.75;4984672;28;20030;-83
2022/01/28 12:20:38;;;;;;;23.70;3.67;;;;;;;7.59;100.00;103147.50;4994230;28;20038;-82
2022/01/28 12:23:25;;;;;;;44.47;4.95;;;;;;;7.61;100.00;103136.53;4983350;28;20031;-82
2022/01/28 12:25:56;;;;;;;35.90;5.32;;;;;;;7.55;100.00;103143.06;4999791;28;20030;-82
2022/01/28 12:28:30;;;;;;;30.60;4.38;;;;;;;7.53;100.00;103140.38;4962701;28;20370;-81
2022/01/28 12:31:12;;;;;;;38.80;4.80;;;;;;;7.43;100.00;103143.41;4994572;28;20026;-81
2022/01/28 12:33:43;;;;;;;29.92;5.63;;;;;;;7.53;100.00;103129.47;5016056;28;20126;-83
2022/01/28 12:36:18;;;;;;;34.13;5.85;;;;;;;7.69;100.00;103124.47;4984310;28;20465;-84
2022/01/28 12:38:58;;;;;;;26.02;6.07;;;;;;;7.87;100.00;103119.38;4999085;28;20054;-83
2022/01/28 12:41:25;;;;;;;46.53;5.47;;;;;;;7.71;100.00;103105.34;4971243;28;20042;-83
2022/01/28 12:43:51;;;;;;;33.17;4.97;;;;;;;7.84;100.00;103114.94;5001752;28;20030;-80